Time;durP1;ratioP1;P1;durP2;ratioP2;P2;SDS_P1;SDS_P2;PMS_P1;PMS_P2;Temp;Humidity;BMP_temperature;BMP_pressure;BME280_temperature;BME280_humidity;BME280_pressure;Samples;Min_cycle;Max_cycle;Signal;HPM_P1;HPM_P2
2023/11/23 09:29:49;;;;;;;8.33;5.40;;;;;;;4.15;92.83;99686.09;5170018;27;20548;-85
2023/11/23 09:32:16;;;;;;;7.00;5.53;;;;;;;4.67;89.28;99685.69;5152465;27;40001;-83
2023/11/23 09:34:44;;;;;;;7.77;5.23;;;;;;;5.48;85.67;99722.03;5135507;27;40736;-85
2023/11/23 09:37:11;;;;;;;8.40;6.07;;;;;;;5.90;81.85;99710.31;5152681;27;41942;-84
2023/11/23 09:39:39;;;;;;;6.63;5.17;;;;;;;6.32;78.91;99723.03;5151672;27;41128;-85
2023/11/23 09:42:08;;;;;;;7.07;5.17;;;;;;;6.68;77.21;99721.00;5135378;27;39233;-87
2023/11/23 09:44:36;;;;;;;4.97;4.40;;;;;;;6.96;75.59;99721.81;5170880;27;41676;-85
2023/11/23 09:47:06;;;;;;;7.20;5.47;;;;;;;7.02;74.01;99683.88;5131482;27;42984;-87
2023/11/23 09:49:35;;;;;;;8.67;5.30;;;;;;;7.48;72.24;99736.66;5142724;27;42649;-86
2023/11/23 09:52:02;;;;;;;6.53;5.50;;;;;;;7.62;71.28;99716.84;5122559;27;39283;-86
2023/11/23 09:54:32;;;;;;;7.00;4.70;;;;;;;7.91;70.50;99740.38;5132749;27;40933;-85
2023/11/23 09:57:00;;;;;;;6.20;4.87;;;;;;;8.04;69.83;99736.31;5128914;27;42022;-85
2023/11/23 09:59:28;;;;;;;5.33;4.37;;;;;;;8.13;69.03;99741.25;5134658;27;40274;-85
2023/11/23 10:02:03;;;;;;;6.73;4.67;;;;;;;8.12;68.07;99734.25;5143381;27;39540;-81
2023/11/23 10:04:33;;;;;;;7.07;4.33;;;;;;;8.14;67.21;99716.59;5129836;27;40715;-84
2023/11/23 10:07:01;;;;;;;6.20;4.60;;;;;;;8.32;66.55;99730.88;5132381;27;41941;-83
2023/11/23 10:09:34;;;;;;;5.97;4.60;;;;;;;8.39;66.46;99720.94;5132095;27;42423;-84
2023/11/23 10:12:02;;;;;;;5.63;4.40;;;;;;;8.54;66.51;99720.31;5133033;27;40220;-90
2023/11/23 10:14:29;;;;;;;6.47;4.70;;;;;;;8.71;66.72;99730.19;5132744;27;41135;-90
2023/11/23 10:16:57;;;;;;;6.27;4.30;;;;;;;8.73;66.58;99701.94;5136090;27;41923;-88
2023/11/23 10:19:25;;;;;;;7.17;4.20;;;;;;;8.74;64.69;99699.25;5116611;27;41584;-86
2023/11/23 10:21:59;;;;;;;6.00;4.17;;;;;;;8.79;64.04;99704.31;5122952;27;39171;-84
2023/11/23 10:24:27;;;;;;;6.73;4.13;;;;;;;8.85;64.19;99714.66;5123967;27;40660;-89
2023/11/23 10:26:55;;;;;;;6.17;4.73;;;;;;;8.46;64.48;99638.81;5115806;27;41934;-85
2023/11/23 10:29:28;;;;;;;5.83;4.20;;;;;;;8.84;64.35;99684.72;5132002;27;41462;-84
2023/11/23 10:31:59;;;;;;;6.83;4.47;;;;;;;8.94;63.59;99701.03;5116375;27;39391;-86
2023/11/23 10:34:28;;;;;;;6.37;4.33;;;;;;;8.91;63.13;99699.38;5132696;27;42432;-88
2023/11/23 10:36:58;;;;;;;5.17;4.10;;;;;;;8.90;62.92;99692.38;5132844;27;45023;-87
2023/11/23 10:39:27;;;;;;;4.67;3.67;;;;;;;8.79;62.77;99668.19;5110737;27;41375;-88
2023/11/23 10:41:55;;;;;;;5.87;4.40;;;;;;;8.83;62.70;99675.09;5126641;27;40138;-81
2023/11/23 10:44:22;;;;;;;5.63;4.17;;;;;;;8.75;63.03;99644.66;5121842;27;42238;-90
2023/11/23 10:46:53;;;;;;;7.33;4.37;;;;;;;8.87;62.78;99654.69;5101892;27;43246;-85
2023/11/23 10:49:22;;;;;;;5.47;3.50;;;;;;;8.84;63.26;99628.41;5101874;27;42896;-90
2023/11/23 10:51:51;;;;;;;5.90;4.50;;;;;;;8.86;63.49;99632.69;5112373;27;38985;-82
2023/11/23 10:54:20;;;;;;;8.07;4.50;;;;;;;9.02;62.84;99640.81;5126000;27;40762;-81
2023/11/23 10:56:48;;;;;;;5.13;4.10;;;;;;;9.04;62.59;99619.59;5139150;27;45597;-82
2023/11/23 10:59:20;;;;;;;5.53;4.37;;;;;;;9.17;62.25;99624.28;5126991;27;42566;-86
2023/11/23 11:01:51;;;;;;;5.00;3.70;;;;;;;9.30;62.41;99608.72;5119062;27;40157;-86
2023/11/23 11:04:19;;;;;;;5.00;4.00;;;;;;;9.45;61.21;99636.25;5130507;27;43240;-85
2023/11/23 11:06:48;;;;;;;4.70;4.20;;;;;;;9.35;61.21;99617.31;5102714;27;43902;-87
2023/11/23 11:09:17;;;;;;;5.50;4.43;;;;;;;9.32;61.62;99596.31;5101753;27;40740;-90
2023/11/23 11:11:55;;;;;;;5.73;3.90;;;;;;;9.52;61.92;99611.28;5118794;27;39066;-87
2023/11/23 11:14:34;;;;;;;5.30;4.03;;;;;;;9.65;61.35;99623.81;5101395;27;41071;-93
2023/11/23 11:17:02;;;;;;;5.20;4.23;;;;;;;9.77;60.74;99616.28;5118499;27;41563;-89
2023/11/23 11:19:30;;;;;;;5.43;4.30;;;;;;;9.99;61.01;99627.53;5100592;27;41572;-84
2023/11/23 11:22:00;;;;;;;4.93;3.33;;;;;;;10.13;60.77;99625.09;5117531;27;39422;-85
2023/11/23 11:24:28;;;;;;;7.03;4.50;;;;;;;10.16;60.52;99619.63;5099642;27;41025;-83
2023/11/23 11:27:01;;;;;;;9.07;4.47;;;;;;;10.40;60.39;99621.09;5108307;27;42176;-84
2023/11/23 11:29:30;;;;;;;5.10;4.07;;;;;;;10.60;59.14;99629.88;5105285;27;41066;-85
2023/11/23 11:31:58;;;;;;;4.57;3.63;;;;;;;10.73;58.80;99609.78;5100099;27;40536;-86
2023/11/23 11:34:26;;;;;;;5.20;4.00;;;;;;;10.80;58.33;99605.88;5134309;27;41644;-85
2023/11/23 11:36:58;;;;;;;5.60;4.10;;;;;;;10.72;58.36;99582.41;5116991;27;41917;-83
2023/11/23 11:39:31;;;;;;;5.47;3.63;;;;;;;10.85;58.56;99587.09;5100073;27;42256;-87
2023/11/23 11:42:01;;;;;;;6.03;4.17;;;;;;;10.77;58.29;99568.91;5100172;27;38924;-84
2023/11/23 11:44:33;;;;;;;5.33;3.57;;;;;;;10.71;58.20;99559.50;5116644;27;42133;-86
2023/11/23 11:47:01;;;;;;;5.93;4.00;;;;;;;10.79;57.90;99564.41;5100041;27;43402;-86
2023/11/23 11:49:30;;;;;;;5.63;3.60;;;;;;;10.76;57.79;99549.50;5110574;27;40962;-85
2023/11/23 11:51:58;;;;;;;4.60;3.40;;;;;;;10.89;58.02;99547.06;5100865;27;39926;-84
2023/11/23 11:54:26;;;;;;;5.00;3.93;;;;;;;10.93;57.35;99545.13;5104999;27;40834;-88
2023/11/23 11:56:54;;;;;;;4.93;3.63;;;;;;;11.03;57.28;99551.66;5120201;27;41836;-84
2023/11/23 11:59:25;;;;;;;4.27;3.50;;;;;;;11.18;57.42;99547.31;5120045;27;41840;-86
2023/11/23 12:01:53;;;;;;;5.10;3.73;;;;;;;11.32;57.35;99550.09;5120129;27;40561;-86
2023/11/23 12:04:21;;;;;;;5.60;3.80;;;;;;;11.38;57.21;99544.44;5119756;27;40701;-84
2023/11/23 12:06:49;;;;;;;5.70;3.60;;;;;;;11.63;57.22;99570.47;5120123;27;42017;-84
2023/11/23 12:09:22;;;;;;;4.47;3.07;;;;;;;11.81;57.08;99557.09;5119771;27;42418;-84
2023/11/23 12:11:51;;;;;;;3.67;3.17;;;;;;;12.09;56.14;99563.47;5120827;27;39803;-87
2023/11/23 12:14:19;;;;;;;4.27;3.53;;;;;;;12.81;54.58;99568.06;5120233;27;41753;-87
2023/11/23 12:16:49;;;;;;;4.73;3.30;;;;;;;13.86;51.16;99566.81;5119944;27;42907;-86
2023/11/23 12:19:19;;;;;;;4.77;3.67;;;;;;;13.99;51.17;99576.56;5120119;27;42602;-85
2023/11/23 12:21:53;;;;;;;5.33;3.83;;;;;;;13.66;50.83;99555.63;5120472;27;39846;-83
2023/11/23 12:24:21;;;;;;;4.17;3.00;;;;;;;13.80;51.11;99554.75;5119682;27;40806;-84
2023/11/23 12:26:49;;;;;;;3.50;2.93;;;;;;;13.57;51.57;99542.94;5155518;27;42777;-84
2023/11/23 12:29:22;;;;;;;5.27;3.97;;;;;;;13.38;51.49;99538.84;5153816;27;42451;-86
2023/11/23 12:31:51;;;;;;;5.70;3.60;;;;;;;13.00;51.29;99530.56;5134122;27;40307;-81
2023/11/23 12:34:20;;;;;;;4.87;3.63;;;;;;;12.75;51.59;99528.56;5119259;27;40776;-83
2023/11/23 12:36:48;;;;;;;4.43;3.50;;;;;;;12.48;52.66;99516.00;5119425;27;41926;-87
2023/11/23 12:39:15;;;;;;;5.63;3.43;;;;;;;12.18;53.13;99492.09;5136388;27;42466;-83
2023/11/23 12:41:44;;;;;;;4.20;3.17;;;;;;;12.05;53.45;99493.75;5119289;27;39167;-89
2023/11/23 12:44:11;;;;;;;4.17;3.00;;;;;;;12.02;53.82;99485.13;5119252;27;40809;-84
2023/11/23 12:46:41;;;;;;;4.03;3.40;;;;;;;11.98;54.06;99480.94;5102532;27;43931;-86
2023/11/23 12:49:11;;;;;;;5.10;3.67;;;;;;;11.89;54.71;99471.69;5119131;27;41237;-84
2023/11/23 12:51:38;;;;;;;3.43;2.83;;;;;;;12.01;54.73;99476.28;5119617;27;38344;-85
2023/11/23 12:54:06;;;;;;;7.17;3.37;;;;;;;11.92;55.04;99454.75;5118987;27;41057;-85
2023/11/23 12:56:35;;;;;;;4.03;3.23;;;;;;;11.88;54.94;99460.22;5118680;27;42867;-83
2023/11/23 12:59:02;;;;;;;4.27;3.27;;;;;;;11.71;55.22;99439.09;5118465;27;42365;-83
2023/11/23 13:01:34;;;;;;;5.20;3.30;;;;;;;11.59;55.74;99436.31;5119419;27;40640;-85
2023/11/23 13:04:02;;;;;;;5.80;3.30;;;;;;;11.53;56.58;99426.88;5118358;27;41039;-83
2023/11/23 13:06:31;;;;;;;4.90;3.20;;;;;;;11.34;57.32;99400.56;5102351;27;42296;-83
2023/11/23 13:08:59;;;;;;;4.10;2.83;;;;;;;11.16;57.38;99375.94;5118649;27;44297;-84
2023/11/23 13:11:26;;;;;;;4.33;3.30;;;;;;;11.23;58.21;99387.06;5118790;27;40146;-83
2023/11/23 13:13:54;;;;;;;3.70;3.00;;;;;;;11.15;58.71;99390.13;5118580;27;41581;-84
2023/11/23 13:16:23;;;;;;;5.53;3.13;;;;;;;11.12;59.42;99393.00;5119156;27;42006;-84
2023/11/23 13:18:51;;;;;;;5.07;3.10;;;;;;;10.99;59.62;99381.38;5135751;27;41564;-82
2023/11/23 13:21:19;;;;;;;3.87;2.80;;;;;;;10.85;60.06;99375.97;5118192;27;39203;-84
2023/11/23 13:23:49;;;;;;;4.57;2.97;;;;;;;10.68;60.87;99346.88;5135585;27;42345;-85
2023/11/23 13:26:17;;;;;;;4.77;3.10;;;;;;;10.51;61.40;99349.63;5118443;27;42993;-82
2023/11/23 13:28:45;;;;;;;4.60;2.90;;;;;;;10.47;61.60;99337.47;5135231;27;41571;-81
2023/11/23 13:31:14;;;;;;;4.93;3.57;;;;;;;10.45;61.43;99342.84;5135699;27;39196;-86
2023/11/23 13:33:41;;;;;;;4.17;3.00;;;;;;;10.52;61.54;99341.56;5118160;27;42111;-83
2023/11/23 13:36:10;;;;;;;4.80;3.10;;;;;;;10.39;61.25;99330.78;5119272;27;42823;-83
2023/11/23 13:38:37;;;;;;;5.50;3.50;;;;;;;10.42;61.20;99335.06;5138359;27;40731;-82
2023/11/23 13:41:09;;;;;;;3.37;3.03;;;;;;;10.31;61.02;99343.59;5138141;27;40801;-84
2023/11/23 13:43:37;;;;;;;4.33;3.10;;;;;;;10.34;61.44;99354.03;5124973;27;41748;-83
2023/11/23 13:46:05;;;;;;;4.70;3.27;;;;;;;10.11;61.85;99337.63;5119313;27;43416;-85
2023/11/23 13:48:33;;;;;;;4.10;3.10;;;;;;;10.13;62.19;99333.13;5135538;27;42501;-82
2023/11/23 13:51:00;;;;;;;4.43;3.07;;;;;;;9.99;62.63;99340.00;5118915;27;38858;-86
2023/11/23 13:53:29;;;;;;;3.93;3.27;;;;;;;10.01;62.59;99322.22;5135727;27;41658;-84
2023/11/23 13:55:57;;;;;;;4.40;3.40;;;;;;;10.09;62.70;99333.25;5118339;27;41928;-85
2023/11/23 13:58:29;;;;;;;4.50;3.20;;;;;;;9.96;62.83;99320.75;5118112;27;41170;-87
2023/11/23 14:00:57;;;;;;;4.03;3.10;;;;;;;9.92;62.98;99319.19;5118304;27;39078;-85
2023/11/23 14:03:25;;;;;;;5.00;3.30;;;;;;;9.87;63.54;99330.03;5117922;27;42929;-85
2023/11/23 14:05:52;;;;;;;5.73;4.00;;;;;;;9.87;63.94;99337.97;5118215;27;41692;-84
2023/11/23 14:08:20;;;;;;;3.83;2.87;;;;;;;9.76;64.12;99308.59;5118214;27;44611;-85
2023/11/23 14:10:48;;;;;;;4.07;3.27;;;;;;;9.72;64.37;99297.31;5135445;27;40523;-86
2023/11/23 14:13:16;;;;;;;3.63;3.33;;;;;;;9.77;64.60;99312.09;5118066;27;43715;-83
2023/11/23 14:15:45;;;;;;;6.90;4.33;;;;;;;9.71;64.70;99311.47;5120486;27;42799;-84
2023/11/23 14:18:14;;;;;;;5.37;4.60;;;;;;;9.77;65.00;99317.38;5138793;27;42004;-82
2023/11/23 14:20:43;;;;;;;6.93;4.70;;;;;;;9.72;65.12;99309.66;5139020;27;40086;-85
2023/11/23 14:23:12;;;;;;;5.30;4.00;;;;;;;9.62;65.29;99280.22;5138493;27;41699;-85
2023/11/23 14:25:40;;;;;;;6.20;4.27;;;;;;;9.60;65.33;99275.94;5121197;27;44298;-82
2023/11/23 14:28:14;;;;;;;5.70;3.87;;;;;;;9.64;65.47;99273.03;5140231;27;42521;-85
2023/11/23 14:30:42;;;;;;;6.07;3.83;;;;;;;9.66;65.69;99271.16;5124838;27;38620;-82
